createdAt,value
2018-11-03T00:02:14.821Z,98039.41
2018-11-03T00:04:42.905Z,98034.81
2018-11-03T00:07:10.795Z,98033.20
2018-11-03T00:09:39.481Z,98036.35
2018-11-03T00:12:06.429Z,98033.12
2018-11-03T00:14:34.245Z,98036.35
2018-11-03T00:17:02.073Z,98042.64
2018-11-03T00:19:29.234Z,98045.98
2018-11-03T00:21:57.176Z,98045.55
2018-11-03T00:24:24.900Z,98044.50
2018-11-03T00:26:52.554Z,98052.33
2018-11-03T00:29:20.641Z,98057.20
2018-11-03T00:31:48.065Z,98057.16
2018-11-03T00:34:17.186Z,98061.20
2018-11-03T00:36:45.618Z,98065.00
2018-11-03T00:39:12.541Z,98064.55
2018-11-03T00:41:40.699Z,98063.82
2018-11-03T00:44:07.398Z,98055.23
2018-11-03T00:46:34.973Z,98057.73
2018-11-03T00:49:01.448Z,98052.11
2018-11-03T00:51:30.200Z,98063.78
2018-11-03T00:54:00.567Z,98061.00
2018-11-03T00:59:04.826Z,98060.55
2018-11-03T01:01:31.326Z,98056.82
2018-11-03T01:03:59.298Z,98054.81
2018-11-03T01:06:27.914Z,98056.82
2018-11-03T01:08:55.059Z,98053.12
2018-11-03T01:11:21.569Z,98051.95
2018-11-03T01:13:53.386Z,98047.37
2018-11-03T01:16:20.488Z,98050.78
2018-11-03T01:18:48.996Z,98049.14
2018-11-03T01:21:16.959Z,98052.17
2018-11-03T01:23:45.176Z,98043.56
2018-11-03T01:26:13.964Z,98046.06
2018-11-03T01:28:42.176Z,98048.00
2018-11-03T01:33:57.191Z,98042.72
2018-11-03T01:36:23.703Z,98048.89
2018-11-03T01:38:50.325Z,98056.84
2018-11-03T01:41:18.153Z,98054.38
2018-11-03T01:43:44.654Z,98051.34
2018-11-03T01:46:11.154Z,98054.17
2018-11-03T01:48:37.670Z,98055.67
2018-11-03T01:51:05.031Z,98056.78
2018-11-03T01:53:31.635Z,98053.24
2018-11-03T01:55:58.326Z,98054.66
2018-11-03T01:58:24.810Z,98049.45
2018-11-03T02:00:51.328Z,98051.52
2018-11-03T02:03:17.899Z,98052.13
2018-11-03T02:05:44.380Z,98063.41
2018-11-03T02:08:10.955Z,98057.16
2018-11-03T02:10:37.784Z,98062.63
2018-11-03T02:13:04.255Z,98061.75
2018-11-03T02:15:30.903Z,98054.45
2018-11-03T02:17:58.408Z,98053.37
2018-11-03T02:20:25.045Z,98044.70
2018-11-03T02:22:51.539Z,98054.20
2018-11-03T02:25:18.149Z,98057.00
2018-11-03T02:27:44.696Z,98057.05
2018-11-03T02:30:11.169Z,98058.45
2018-11-03T02:32:41.152Z,98063.14
2018-11-03T02:35:07.883Z,98063.59
2018-11-03T02:37:34.343Z,98064.27
2018-11-03T02:40:00.873Z,98072.30
2018-11-03T02:42:27.327Z,98065.68
2018-11-03T02:44:53.975Z,98064.11
2018-11-03T02:47:20.651Z,98074.59
2018-11-03T02:49:47.105Z,98074.88
2018-11-03T02:52:13.812Z,98077.45
2018-11-03T02:54:40.884Z,98080.92
2018-11-03T02:57:07.364Z,98080.77
2018-11-03T02:59:34.021Z,98083.60
2018-11-03T03:02:01.887Z,98085.10
2018-11-03T03:04:28.445Z,98086.56
2018-11-03T03:06:55.106Z,98083.10
2018-11-03T03:09:21.702Z,98085.48
2018-11-03T03:11:48.724Z,98080.52
2018-11-03T03:14:15.396Z,98089.61
2018-11-03T03:16:41.863Z,98093.70
2018-11-03T03:19:08.573Z,98086.83
2018-11-03T03:21:35.070Z,98090.58
2018-11-03T03:24:01.786Z,98091.80
2018-11-03T03:26:28.264Z,98089.74
2018-11-03T03:28:55.763Z,98093.64
2018-11-03T03:31:22.440Z,98094.13
2018-11-03T03:33:49.040Z,98094.27
2018-11-03T03:36:15.557Z,98089.30
2018-11-03T03:38:42.069Z,98090.23
2018-11-03T03:41:08.536Z,98097.67
2018-11-03T03:43:35.209Z,98095.03
2018-11-03T03:46:01.958Z,98096.28
2018-11-03T03:48:28.749Z,98093.85
2018-11-03T03:50:55.299Z,98091.52
2018-11-03T03:53:22.048Z,98095.39
2018-11-03T03:55:48.718Z,98101.20
2018-11-03T03:58:15.216Z,98100.17
2018-11-03T04:00:41.893Z,98092.93
2018-11-03T04:03:08.349Z,98099.30
2018-11-03T04:05:35.019Z,98098.41
2018-11-03T04:08:01.911Z,98093.09
2018-11-03T04:10:28.489Z,98093.59
2018-11-03T04:12:55.141Z,98091.56
2018-11-03T04:15:21.755Z,98089.88
2018-11-03T04:17:48.206Z,98089.91
2018-11-03T04:20:14.881Z,98095.36
2018-11-03T04:22:43.516Z,98098.17
2018-11-03T04:27:44.891Z,98102.62
2018-11-03T04:30:13.636Z,98112.39
2018-11-03T04:32:42.437Z,98109.48
2018-11-03T04:35:09.257Z,98109.48
2018-11-03T04:37:36.422Z,98104.22
2018-11-03T04:40:04.603Z,98108.51
2018-11-03T04:42:36.061Z,98106.38
2018-11-03T04:45:03.279Z,98100.70
2018-11-03T04:47:31.921Z,98103.36
2018-11-03T04:49:59.242Z,98107.47
2018-11-03T04:52:26.940Z,98109.34
2018-11-03T04:54:54.063Z,98105.41
2018-11-03T04:57:23.019Z,98115.10
2018-11-03T04:59:51.512Z,98111.43
2018-11-03T05:02:19.944Z,98116.38
2018-11-03T05:04:46.864Z,98108.35
2018-11-03T05:07:13.402Z,98113.06
2018-11-03T05:09:40.676Z,98110.79
2018-11-03T05:12:08.591Z,98124.41
2018-11-03T05:14:36.089Z,98123.38
2018-11-03T05:17:07.607Z,98129.52
2018-11-03T05:19:34.815Z,98133.16
2018-11-03T05:22:03.471Z,98133.30
2018-11-03T05:24:31.138Z,98132.98
2018-11-03T05:26:58.902Z,98129.91
2018-11-03T05:29:27.007Z,98126.27
2018-11-03T05:31:54.728Z,98123.67
2018-11-03T05:34:27.446Z,98124.19
2018-11-03T05:36:55.718Z,98130.61
2018-11-03T05:39:23.481Z,98135.33
2018-11-03T05:41:53.812Z,98137.89
2018-11-03T05:44:21.270Z,98137.60
2018-11-03T05:46:48.414Z,98139.95
2018-11-03T05:49:18.801Z,98139.27
2018-11-03T05:51:45.849Z,98152.13
2018-11-03T05:54:13.159Z,98153.67
2018-11-03T05:56:40.391Z,98153.58
2018-11-03T05:59:08.297Z,98160.81
2018-11-03T06:01:35.970Z,98156.62
2018-11-03T06:04:03.737Z,98152.74
2018-11-03T06:06:31.207Z,98160.58
2018-11-03T06:08:59.496Z,98162.17
2018-11-03T06:11:28.800Z,98167.27
2018-11-03T06:13:56.343Z,98171.78
2018-11-03T06:16:24.402Z,98178.45
2018-11-03T06:18:53.044Z,98181.64
2018-11-03T06:21:20.955Z,98178.31
2018-11-03T06:23:47.430Z,98182.23
2018-11-03T06:26:16.141Z,98184.10
2018-11-03T06:28:45.637Z,98191.22
2018-11-03T06:31:14.126Z,98197.56
2018-11-03T06:33:41.271Z,98197.70
2018-11-03T06:36:09.503Z,98197.10
2018-11-03T06:38:37.813Z,98203.29
2018-11-03T06:46:10.771Z,98202.19
2018-11-03T06:48:38.358Z,98206.68
2018-11-03T06:51:05.994Z,98211.11
2018-11-03T06:53:37.541Z,98215.95
2018-11-03T06:56:05.451Z,98220.02
2018-11-03T06:58:34.040Z,98229.01
2018-11-03T07:01:02.284Z,98235.13
2018-11-03T07:03:29.579Z,98244.77
2018-11-03T07:05:56.674Z,98241.70
2018-11-03T07:08:24.423Z,98256.37
2018-11-03T07:10:52.553Z,98255.56
2018-11-03T07:13:21.004Z,98257.67
2018-11-03T07:15:55.198Z,98259.09
2018-11-03T07:18:23.104Z,98260.52
2018-11-03T07:20:50.473Z,98267.97
2018-11-03T07:23:18.964Z,98268.44
2018-11-03T07:25:46.422Z,98267.55
2018-11-03T07:28:14.672Z,98273.59
2018-11-03T07:30:42.829Z,98279.89
2018-11-03T07:33:11.679Z,98279.72
2018-11-03T07:35:39.159Z,98281.66
2018-11-03T07:38:07.011Z,98280.06
2018-11-03T07:43:06.036Z,98271.87
2018-11-03T07:45:34.120Z,98278.91
2018-11-03T07:48:01.565Z,98274.22
2018-11-03T07:50:29.395Z,98275.75
2018-11-03T07:52:56.172Z,98273.84
2018-11-03T07:55:23.651Z,98280.06
2018-11-03T07:57:52.799Z,98282.61
2018-11-03T08:00:21.205Z,98280.23
2018-11-03T08:02:49.682Z,98283.97
2018-11-03T08:05:17.998Z,98283.10
2018-11-03T08:07:45.617Z,98286.73
2018-11-03T08:10:13.726Z,98284.58
2018-11-03T08:12:42.215Z,98282.81
2018-11-03T08:15:11.442Z,98285.87
2018-11-03T08:17:38.948Z,98291.31
2018-11-03T08:20:07.242Z,98295.31
2018-11-03T08:22:35.771Z,98290.94
2018-11-03T08:25:04.349Z,98295.83
2018-11-03T08:27:31.547Z,98299.71
2018-11-03T08:30:00.055Z,98302.42
2018-11-03T08:32:27.714Z,98299.59
2018-11-03T08:34:57.015Z,98295.39
2018-11-03T08:37:26.354Z,98295.39
2018-11-03T08:39:56.339Z,98295.27
2018-11-03T08:42:24.253Z,98295.91
2018-11-03T08:44:52.955Z,98297.86
2018-11-03T08:47:21.050Z,98301.05
2018-11-03T08:49:50.207Z,98300.85
2018-11-03T08:52:20.410Z,98305.61
2018-11-03T08:54:47.486Z,98301.81
2018-11-03T08:57:15.951Z,98304.51
2018-11-03T08:59:43.202Z,98311.48
2018-11-03T09:04:46.411Z,98308.45
2018-11-03T09:07:13.368Z,98308.73
2018-11-03T09:09:41.418Z,98314.98
2018-11-03T09:12:10.559Z,98319.78
2018-11-03T09:14:37.914Z,98323.51
2018-11-03T09:17:05.532Z,98318.00
2018-11-03T09:19:32.497Z,98319.17
2018-11-03T09:22:01.018Z,98318.98
2018-11-03T09:24:28.275Z,98324.76
2018-11-03T09:26:56.900Z,98321.80
2018-11-03T09:29:24.417Z,98325.27
2018-11-03T09:31:51.751Z,98324.15
2018-11-03T09:34:22.686Z,98324.55
2018-11-03T09:39:22.865Z,98323.95
2018-11-03T09:41:50.660Z,98321.52
2018-11-03T09:44:18.168Z,98323.82
2018-11-03T09:46:45.203Z,98320.72
2018-11-03T09:49:13.952Z,98329.16
2018-11-03T09:51:42.451Z,98329.47
2018-11-03T09:54:10.681Z,98326.12
2018-11-03T09:56:40.029Z,98325.08
2018-11-03T10:01:40.971Z,98298.31
2018-11-03T10:04:08.522Z,98294.00
2018-11-03T10:06:36.009Z,98284.46
2018-11-03T10:09:04.857Z,98282.02
2018-11-03T10:11:32.053Z,98276.23
2018-11-03T10:14:00.190Z,98276.06
2018-11-03T10:16:28.528Z,98276.70
2018-11-03T10:18:56.745Z,98270.30
2018-11-03T10:21:24.517Z,98265.24
2018-11-03T10:23:53.303Z,98263.08
2018-11-03T10:28:54.082Z,98268.20
2018-11-03T10:31:21.357Z,98266.94
2018-11-03T10:33:49.491Z,98270.11
2018-11-03T10:36:17.121Z,98265.53
2018-11-03T10:38:44.209Z,98270.11
2018-11-03T10:41:11.783Z,98266.80
2018-11-03T10:43:39.447Z,98263.36
2018-11-03T10:46:07.503Z,98270.03
2018-11-03T10:48:35.392Z,98267.46
2018-11-03T10:51:05.102Z,98254.72
2018-11-03T10:53:33.594Z,98254.54
2018-11-03T10:56:00.874Z,98241.22
2018-11-03T10:58:29.873Z,98240.63
2018-11-03T11:00:58.988Z,98238.38
2018-11-03T11:03:25.715Z,98233.73
2018-11-03T11:05:53.379Z,98226.25
2018-11-03T11:08:22.559Z,98228.01
2018-11-03T11:10:49.999Z,98228.56
2018-11-03T11:13:18.469Z,98224.81
2018-11-03T11:15:46.742Z,98221.89
2018-11-03T11:18:14.263Z,98220.17
2018-11-03T11:23:14.184Z,98222.77
2018-11-03T11:25:40.922Z,98219.41
2018-11-03T11:28:08.259Z,98218.76
2018-11-03T11:30:36.089Z,98222.95
2018-11-03T11:35:35.972Z,98217.53
2018-11-03T11:38:04.543Z,98220.06
2018-11-03T11:40:32.750Z,98218.71
2018-11-03T11:43:00.566Z,98221.91
2018-11-03T11:45:27.736Z,98222.28
2018-11-03T11:47:55.511Z,98217.84
2018-11-03T11:50:23.553Z,98222.11
2018-11-03T11:52:52.409Z,98213.23
2018-11-03T11:57:52.865Z,98209.20
2018-11-03T12:00:20.709Z,98202.89
2018-11-03T12:02:48.602Z,98202.84
2018-11-03T12:05:15.749Z,98197.96
2018-11-03T12:07:43.848Z,98197.72
2018-11-03T12:10:10.857Z,98192.77
2018-11-03T12:12:38.984Z,98194.96
2018-11-03T12:15:08.477Z,98197.28
2018-11-03T12:17:36.842Z,98194.28
2018-11-03T12:20:04.145Z,98192.39
2018-11-03T12:22:31.932Z,98190.23
2018-11-03T12:24:59.325Z,98192.21
2018-11-03T12:27:29.183Z,98191.08
2018-11-03T12:29:56.730Z,98186.37
2018-11-03T12:32:24.741Z,98185.83
2018-11-03T12:34:51.969Z,98185.16
2018-11-03T12:37:18.947Z,98185.31
2018-11-03T12:39:49.151Z,98186.36
2018-11-03T12:42:15.721Z,98186.34
2018-11-03T12:44:42.511Z,98188.66
2018-11-03T12:47:09.012Z,98182.44
2018-11-03T12:52:08.708Z,98184.16
2018-11-03T12:54:36.445Z,98180.72
2018-11-03T12:57:05.464Z,98183.50
2018-11-03T13:02:05.593Z,98169.08
2018-11-03T13:04:32.445Z,98174.25
2018-11-03T13:07:03.032Z,98176.28
2018-11-03T13:09:31.729Z,98183.09
2018-11-03T13:11:59.770Z,98176.98
2018-11-03T13:14:28.224Z,98174.98
2018-11-03T13:16:55.713Z,98176.11
2018-11-03T13:19:25.204Z,98179.25
2018-11-03T13:21:53.743Z,98177.42
2018-11-03T13:26:57.503Z,98185.34
2018-11-03T13:29:25.511Z,98182.64
2018-11-03T13:31:52.599Z,98193.48
2018-11-03T13:34:21.051Z,98191.88
2018-11-03T13:36:47.886Z,98196.16
2018-11-03T13:39:14.977Z,98194.48
2018-11-03T13:41:42.231Z,98204.73
2018-11-03T13:44:10.677Z,98204.89
2018-11-03T13:46:37.241Z,98205.15
2018-11-03T13:49:05.465Z,98208.66
2018-11-03T13:51:34.829Z,98213.78
2018-11-03T13:54:02.109Z,98207.66
2018-11-03T13:56:31.640Z,98217.05
2018-11-03T13:59:00.173Z,98221.77
2018-11-03T14:01:27.648Z,98220.09
2018-11-03T14:03:56.020Z,98219.19
2018-11-03T14:06:22.533Z,98208.34
2018-11-03T14:08:50.768Z,98213.73
2018-11-03T14:11:18.332Z,98216.45
2018-11-03T14:13:47.733Z,98215.34
2018-11-03T14:16:15.589Z,98215.99
2018-11-03T14:18:43.055Z,98218.20
2018-11-03T14:21:10.058Z,98211.42
2018-11-03T14:23:39.150Z,98215.07
2018-11-03T14:26:08.023Z,98210.02
2018-11-03T14:28:36.970Z,98205.70
2018-11-03T14:31:09.514Z,98208.26
2018-11-03T14:33:37.590Z,98212.63
2018-11-03T14:36:06.359Z,98204.36
2018-11-03T14:38:32.894Z,98202.77
2018-11-03T14:41:01.679Z,98205.96
2018-11-03T14:43:29.650Z,98212.27
2018-11-03T14:45:56.823Z,98217.98
2018-11-03T14:48:23.873Z,98218.52
2018-11-03T14:50:52.190Z,98215.08
2018-11-03T14:53:20.148Z,98215.27
2018-11-03T14:55:47.532Z,98212.23
2018-11-03T14:58:15.759Z,98208.62
2018-11-03T15:00:43.132Z,98215.33
2018-11-03T15:03:10.452Z,98214.41
2018-11-03T15:05:38.920Z,98212.13
2018-11-03T15:08:06.861Z,98216.63
2018-11-03T15:10:34.518Z,98216.56
2018-11-03T15:13:03.392Z,98219.82
2018-11-03T15:15:30.231Z,98221.16
2018-11-03T15:18:01.891Z,98219.47
2018-11-03T15:20:29.450Z,98217.16
2018-11-03T15:22:56.842Z,98224.45
2018-11-03T15:25:24.276Z,98218.49
2018-11-03T15:27:52.687Z,98221.48
2018-11-03T15:30:22.282Z,98218.52
2018-11-03T15:32:50.667Z,98222.98
2018-11-03T15:35:17.710Z,98223.41
2018-11-03T15:37:47.025Z,98224.76
2018-11-03T15:42:45.924Z,98226.95
2018-11-03T15:45:13.051Z,98226.95
2018-11-03T15:47:41.521Z,98225.71
2018-11-03T15:50:08.962Z,98226.09
2018-11-03T15:52:37.480Z,98221.84
2018-11-03T15:55:04.965Z,98224.80
2018-11-03T16:00:05.772Z,98224.66
2018-11-03T16:02:33.337Z,98223.41
2018-11-03T16:05:00.683Z,98225.52
2018-11-03T16:07:27.470Z,98227.62
2018-11-03T16:09:56.286Z,98226.59
2018-11-03T16:12:22.827Z,98230.59
2018-11-03T16:14:53.166Z,98237.62
2018-11-03T16:17:22.281Z,98236.74
2018-11-03T16:19:50.345Z,98241.27
2018-11-03T16:22:17.856Z,98239.77
2018-11-03T16:24:46.025Z,98243.17
2018-11-03T16:27:14.716Z,98233.34
2018-11-03T16:29:43.597Z,98229.56
2018-11-03T16:32:12.031Z,98229.05
2018-11-03T16:34:40.225Z,98236.90
2018-11-03T16:37:08.732Z,98235.41
2018-11-03T16:39:36.478Z,98238.67
2018-11-03T16:42:03.166Z,98231.03
2018-11-03T16:47:02.153Z,98233.17
2018-11-03T16:49:29.531Z,98238.76
2018-11-03T16:51:56.915Z,98242.40
2018-11-03T16:54:24.766Z,98249.77
2018-11-03T16:56:51.340Z,98249.24
2018-11-03T16:59:18.933Z,98249.91
2018-11-03T17:01:46.723Z,98252.81
2018-11-03T17:04:13.508Z,98246.14
2018-11-03T17:06:40.616Z,98253.30
2018-11-03T17:09:11.742Z,98255.05
2018-11-03T17:11:42.321Z,98253.51
2018-11-03T17:14:09.799Z,98241.89
2018-11-03T17:16:36.653Z,98243.72
2018-11-03T17:19:06.400Z,98246.88
2018-11-03T17:21:34.100Z,98245.85
2018-11-03T17:24:00.975Z,98245.14
2018-11-03T17:26:28.290Z,98246.13
2018-11-03T17:28:57.613Z,98237.44
2018-11-03T17:31:24.987Z,98232.48
2018-11-03T17:33:53.016Z,98235.30
2018-11-03T17:38:57.183Z,98235.16
2018-11-03T17:41:24.810Z,98238.50
2018-11-03T17:43:52.284Z,98239.29
2018-11-03T17:46:19.933Z,98233.92
2018-11-03T17:48:46.981Z,98237.36
2018-11-03T17:51:15.350Z,98226.14
2018-11-03T17:53:43.234Z,98227.51
2018-11-03T17:56:11.211Z,98225.33
2018-11-03T18:01:10.775Z,98226.05
2018-11-03T18:03:38.627Z,98222.23
2018-11-03T18:06:06.860Z,98217.63
2018-11-03T18:08:35.213Z,98214.36
2018-11-03T18:11:02.861Z,98208.21
2018-11-03T18:13:30.610Z,98204.81
2018-11-03T18:15:57.209Z,98200.58
2018-11-03T18:18:25.425Z,98199.34
2018-11-03T18:20:53.289Z,98191.07
2018-11-03T18:23:22.469Z,98188.59
2018-11-03T18:25:49.711Z,98192.12
2018-11-03T18:28:16.173Z,98195.23
2018-11-03T18:33:16.717Z,98195.69
2018-11-03T18:35:44.904Z,98192.59
2018-11-03T18:38:13.502Z,98195.25
2018-11-03T18:40:41.538Z,98193.91
2018-11-03T18:43:09.158Z,98188.86
2018-11-03T18:45:36.629Z,98189.53
2018-11-03T18:48:05.611Z,98185.02
2018-11-03T18:50:33.695Z,98179.86
2018-11-03T18:53:00.532Z,98183.49
2018-11-03T18:55:28.556Z,98186.98
2018-11-03T18:57:55.001Z,98189.86
2018-11-03T19:00:23.033Z,98190.59
2018-11-03T19:02:51.019Z,98194.89
2018-11-03T19:05:19.109Z,98179.87
2018-11-03T19:07:46.882Z,98183.67
2018-11-03T19:10:13.497Z,98178.61
2018-11-03T19:12:41.699Z,98186.92
2018-11-03T19:15:09.429Z,98190.04
2018-11-03T19:17:36.743Z,98186.11
2018-11-03T19:20:03.278Z,98182.23
2018-11-03T19:22:31.926Z,98184.48
2018-11-03T19:24:59.840Z,98191.34
2018-11-03T19:27:26.916Z,98191.58
2018-11-03T19:29:54.063Z,98191.66
2018-11-03T19:32:23.361Z,98193.66
2018-11-03T19:34:49.962Z,98198.52
2018-11-03T19:37:16.485Z,98202.51
2018-11-03T19:39:44.163Z,98203.17
2018-11-03T19:42:11.692Z,98205.23
2018-11-03T19:44:39.624Z,98207.84
2018-11-03T19:47:06.447Z,98208.13
2018-11-03T19:49:34.438Z,98218.44
2018-11-03T19:52:00.911Z,98218.69
2018-11-03T19:57:00.509Z,98219.87
2018-11-03T19:59:28.872Z,98218.84
2018-11-03T20:01:57.227Z,98226.63
2018-11-03T20:04:24.338Z,98226.38
2018-11-03T20:06:52.812Z,98226.19
2018-11-03T20:09:20.471Z,98234.42
2018-11-03T20:11:48.515Z,98226.38
2018-11-03T20:14:16.041Z,98225.27
2018-11-03T20:16:43.867Z,98230.78
2018-11-03T20:19:11.774Z,98228.21
2018-11-03T20:21:38.708Z,98222.38
2018-11-03T20:24:06.884Z,98233.78
2018-11-03T20:26:34.143Z,98226.76
2018-11-03T20:29:01.604Z,98219.25
2018-11-03T20:31:29.697Z,98218.73
2018-11-03T20:33:58.997Z,98226.09
2018-11-03T20:36:26.425Z,98225.20
2018-11-03T20:38:58.104Z,98224.86
2018-11-03T20:41:26.747Z,98220.55
2018-11-03T20:43:54.386Z,98227.28
2018-11-03T20:46:21.920Z,98224.30
2018-11-03T20:48:48.665Z,98227.05
2018-11-03T20:51:16.111Z,98231.79
2018-11-03T20:53:44.959Z,98232.13
2018-11-03T20:56:13.394Z,98227.75
2018-11-03T20:58:40.870Z,98223.72
2018-11-03T21:01:08.407Z,98222.39
2018-11-03T21:03:38.886Z,98214.46
2018-11-03T21:06:06.049Z,98216.70
2018-11-03T21:08:33.759Z,98209.46
2018-11-03T21:11:02.660Z,98206.23
2018-11-03T21:13:30.326Z,98207.93
2018-11-03T21:15:57.976Z,98210.27
2018-11-03T21:18:26.778Z,98195.82
2018-11-03T21:20:56.678Z,98186.80
2018-11-03T21:23:23.561Z,98189.86
2018-11-03T21:25:51.092Z,98186.24
2018-11-03T21:28:19.335Z,98191.09
2018-11-03T21:30:46.226Z,98185.90
2018-11-03T21:33:14.470Z,98177.66
2018-11-03T21:35:42.246Z,98178.06
2018-11-03T21:38:09.338Z,98175.92
2018-11-03T21:40:36.036Z,98173.48
2018-11-03T21:43:03.826Z,98166.70
2018-11-03T21:45:30.963Z,98164.94
2018-11-03T21:47:58.241Z,98158.34
2018-11-03T21:50:26.213Z,98167.45
2018-11-03T21:52:53.335Z,98157.60
2018-11-03T21:55:20.469Z,98159.20
2018-11-03T21:57:48.098Z,98158.64
2018-11-03T22:00:16.144Z,98155.69
2018-11-03T22:02:44.129Z,98158.21
2018-11-03T22:05:11.941Z,98157.11
2018-11-03T22:07:40.101Z,98152.23
2018-11-03T22:10:08.042Z,98149.15
2018-11-03T22:12:36.534Z,98147.03
2018-11-03T22:15:05.190Z,98141.37
2018-11-03T22:17:31.985Z,98138.61
2018-11-03T22:20:01.495Z,98139.41
2018-11-03T22:22:30.058Z,98134.80
2018-11-03T22:24:58.010Z,98133.32
2018-11-03T22:27:25.833Z,98125.45
2018-11-03T22:29:52.976Z,98126.25
2018-11-03T22:32:21.061Z,98127.95
2018-11-03T22:34:48.351Z,98126.77
2018-11-03T22:37:17.826Z,98117.53
2018-11-03T22:39:45.077Z,98112.44
2018-11-03T22:44:47.909Z,98104.58
2018-11-03T22:47:15.045Z,98101.69
2018-11-03T22:49:41.991Z,98098.45
2018-11-03T22:52:10.690Z,98104.20
2018-11-03T22:54:38.031Z,98099.72
2018-11-03T22:57:05.075Z,98098.27
2018-11-03T22:59:32.663Z,98099.08
2018-11-03T23:02:01.235Z,98099.36
2018-11-03T23:04:28.730Z,98094.25
2018-11-03T23:06:56.190Z,98097.55
2018-11-03T23:09:23.691Z,98091.97
2018-11-03T23:11:50.723Z,98087.08
2018-11-03T23:14:18.669Z,98086.35
2018-11-03T23:16:48.337Z,98084.02
2018-11-03T23:19:15.845Z,98080.37
2018-11-03T23:21:43.875Z,98079.19
2018-11-03T23:24:12.077Z,98074.01
2018-11-03T23:26:39.995Z,98078.84
2018-11-03T23:29:07.418Z,98068.34
2018-11-03T23:31:35.650Z,98071.77
2018-11-03T23:34:04.964Z,98070.19
2018-11-03T23:36:32.050Z,98067.77
2018-11-03T23:38:59.215Z,98073.57
2018-11-03T23:41:27.460Z,98063.37
2018-11-03T23:43:54.945Z,98050.52
2018-11-03T23:46:23.399Z,98046.57
2018-11-03T23:48:52.320Z,98044.66
2018-11-03T23:51:20.121Z,98042.97
2018-11-03T23:53:47.721Z,98046.67
2018-11-03T23:56:16.054Z,98043.45
2018-11-03T23:58:44.004Z,98038.48
